Time;durP1;ratioP1;P1;durP2;ratioP2;P2;SDS_P1;SDS_P2;PMS_P1;PMS_P2;Temp;Humidity;BMP_temperature;BMP_pressure;BME280_temperature;BME280_humidity;BME280_pressure;Samples;Min_cycle;Max_cycle;Signal;HPM_P1;HPM_P2
2022/10/20 00:01:27;;;;;;;3.05;2.10;;;;;;;13.06;50.00;102374.97;4975321;28;98013;-65
2022/10/20 00:03:56;;;;;;;4.13;2.05;;;;;;;12.72;50.91;102366.78;4974010;28;99528;-66
2022/10/20 00:06:25;;;;;;;5.50;2.50;;;;;;;13.11;50.06;102375.75;4969898;28;98903;-65
2022/10/20 00:08:52;;;;;;;9.88;2.42;;;;;;;13.01;50.29;102376.81;4969315;28;96933;-66
2022/10/20 00:11:20;;;;;;;7.30;2.80;;;;;;;13.00;50.27;102375.94;4973451;28;97060;-67
2022/10/20 00:13:52;;;;;;;5.10;2.00;;;;;;;12.98;50.17;102374.25;4970868;28;99341;-66
2022/10/20 00:16:19;;;;;;;3.60;1.67;;;;;;;12.99;50.09;102371.56;4975142;28;98841;-65
2022/10/20 00:18:46;;;;;;;6.95;2.40;;;;;;;12.89;50.68;102372.63;4975659;28;96893;-66
2022/10/20 00:21:17;;;;;;;5.63;2.10;;;;;;;12.85;50.58;102373.59;4974720;28;97173;-66
2022/10/20 00:23:43;;;;;;;5.32;2.50;;;;;;;12.86;50.53;102369.19;4970393;28;99180;-66
2022/10/20 00:26:12;;;;;;;4.10;2.22;;;;;;;12.61;51.48;102368.75;4971584;28;98994;-67
2022/10/20 00:28:38;;;;;;;5.85;2.20;;;;;;;12.61;51.22;102369.63;4973204;28;96757;-66
2022/10/20 00:31:06;;;;;;;4.00;2.15;;;;;;;12.88;51.01;102362.91;4969486;28;97210;-65
2022/10/20 00:33:33;;;;;;;3.35;1.98;;;;;;;12.84;51.07;102368.31;4976175;28;99031;-66
2022/10/20 00:35:59;;;;;;;7.70;2.53;;;;;;;12.68;51.29;102362.41;4972587;28;98951;-66
2022/10/20 00:38:27;;;;;;;3.30;2.30;;;;;;;12.64;51.59;102366.94;4977927;28;96850;-65
2022/10/20 00:40:54;;;;;;;4.00;2.35;;;;;;;12.68;51.22;102355.34;4974725;28;98686;-66
2022/10/20 00:43:21;;;;;;;5.32;2.40;;;;;;;12.51;52.12;102361.88;4974020;28;99329;-66
2022/10/20 00:45:54;;;;;;;4.88;2.55;;;;;;;12.81;51.36;102348.03;4979257;28;99353;-66
2022/10/20 00:48:27;;;;;;;8.55;2.30;;;;;;;12.55;51.64;102337.91;4973055;28;96898;-66
2022/10/20 00:50:56;;;;;;;4.80;2.28;;;;;;;12.70;51.46;102328.81;4970079;28;97634;-65
2022/10/20 00:53:26;;;;;;;6.25;2.20;;;;;;;12.62;51.96;102330.72;4972835;28;100702;-66
2022/10/20 00:55:56;;;;;;;3.92;1.88;;;;;;;12.46;52.25;102326.63;4976377;28;98819;-65
2022/10/20 00:58:24;;;;;;;7.90;2.40;;;;;;;12.46;52.47;102322.19;4971232;28;97383;-65
2022/10/20 01:00:55;;;;;;;4.38;2.10;;;;;;;12.68;51.90;102317.34;4970929;28;97572;-66
2022/10/20 01:03:26;;;;;;;3.53;2.25;;;;;;;12.50;52.19;102317.69;4967611;28;99133;-66
2022/10/20 01:05:52;;;;;;;5.30;1.63;;;;;;;12.59;51.94;102317.53;4972170;28;99230;-65
2022/10/20 01:08:18;;;;;;;2.95;1.90;;;;;;;12.47;52.21;102320.41;4969149;28;96917;-66
2022/10/20 01:10:56;;;;;;;4.28;1.98;;;;;;;12.45;52.37;102319.56;4970811;28;97731;-66
2022/10/20 01:13:33;;;;;;;2.42;1.65;;;;;;;12.48;52.38;102322.13;4972962;28;101224;-66
2022/10/20 01:16:09;;;;;;;3.97;1.90;;;;;;;12.50;51.99;102323.00;4975906;28;98981;-65
2022/10/20 01:18:44;;;;;;;6.20;1.95;;;;;;;12.33;52.73;102321.53;4969308;28;99358;-65
2022/10/20 01:21:32;;;;;;;2.35;1.88;;;;;;;12.58;51.96;102314.00;4971067;28;96981;-65
2022/10/20 01:24:18;;;;;;;5.20;1.90;;;;;;;12.41;52.42;102315.19;4970383;28;99054;-65
2022/10/20 01:27:23;;;;;;;2.10;1.73;;;;;;;12.31;52.71;102302.13;4970703;28;99243;-66
2022/10/20 01:29:55;;;;;;;4.30;1.83;;;;;;;12.53;51.97;102301.75;4966167;28;96908;-65
2022/10/20 01:32:25;;;;;;;7.93;1.80;;;;;;;12.37;52.57;102301.13;4972259;28;97179;-65
2022/10/20 01:35:03;;;;;;;5.35;2.00;;;;;;;12.31;52.76;102296.81;4973787;28;99558;-65
2022/10/20 01:37:36;;;;;;;4.28;2.10;;;;;;;12.27;52.60;102304.88;4975310;28;97634;-66
2022/10/20 01:40:10;;;;;;;5.75;1.80;;;;;;;12.34;52.67;102290.56;4971311;28;96934;-66
2022/10/20 01:42:40;;;;;;;5.47;1.95;;;;;;;12.35;52.54;102298.50;4970844;28;97166;-66
2022/10/20 01:45:08;;;;;;;4.47;1.65;;;;;;;12.49;52.41;102289.44;4970451;28;98902;-65
2022/10/20 01:47:36;;;;;;;5.45;2.03;;;;;;;12.49;52.38;102286.78;4968036;28;98854;-66
2022/10/20 01:50:05;;;;;;;4.28;1.70;;;;;;;12.48;52.50;102290.31;4970987;28;98649;-67
2022/10/20 01:52:31;;;;;;;4.25;2.38;;;;;;;12.51;52.50;102284.97;4967006;28;96934;-66
2022/10/20 01:54:58;;;;;;;4.47;1.95;;;;;;;12.59;51.94;102283.94;4968596;28;98831;-65
2022/10/20 01:57:38;;;;;;;8.77;2.10;;;;;;;12.12;53.16;102278.63;4970406;28;99455;-65
2022/10/20 02:00:08;;;;;;;4.03;2.00;;;;;;;12.17;52.92;102264.41;4972316;28;96891;-66
2022/10/20 02:03:03;;;;;;;3.20;1.65;;;;;;;12.34;52.73;102264.94;4966696;28;97077;-65
2022/10/20 02:05:45;;;;;;;5.93;2.22;;;;;;;12.51;52.32;102259.34;4962803;28;98287;-66
2022/10/20 02:08:16;;;;;;;4.85;1.92;;;;;;;12.21;53.14;102252.81;4969033;28;99986;-65
2022/10/20 02:10:46;;;;;;;7.43;2.10;;;;;;;12.29;52.95;102253.56;4967363;28;98101;-65
2022/10/20 02:13:14;;;;;;;2.60;1.75;;;;;;;12.31;53.03;102243.81;4968733;28;97568;-65
2022/10/20 02:15:46;;;;;;;3.90;1.90;;;;;;;12.29;52.92;102245.59;4972268;28;99322;-65
2022/10/20 02:18:18;;;;;;;4.45;2.00;;;;;;;12.29;52.83;102242.97;4973806;28;101722;-66
2022/10/20 02:20:49;;;;;;;3.47;1.92;;;;;;;12.42;52.32;102234.78;4971509;28;96875;-65
2022/10/20 02:23:16;;;;;;;3.33;1.80;;;;;;;12.43;52.36;102236.53;4968335;28;98596;-66
2022/10/20 02:25:43;;;;;;;4.10;2.20;;;;;;;12.37;52.27;102227.78;4966300;28;98979;-65
2022/10/20 02:28:13;;;;;;;6.65;2.05;;;;;;;12.38;52.17;102233.97;4968252;28;99008;-65
2022/10/20 02:30:43;;;;;;;4.78;2.10;;;;;;;12.49;51.92;102237.28;4968928;28;96743;-65
2022/10/20 02:33:10;;;;;;;4.97;1.75;;;;;;;12.37;52.13;102227.78;4973875;28;97510;-66
2022/10/20 02:35:36;;;;;;;7.75;2.17;;;;;;;12.31;52.37;102227.03;4975839;28;100759;-67
2022/10/20 02:38:03;;;;;;;4.07;2.20;;;;;;;11.90;53.47;102230.44;4968473;28;99241;-65
2022/10/20 02:40:29;;;;;;;4.07;2.03;;;;;;;11.83;53.70;102228.78;4969113;28;97216;-65
2022/10/20 02:42:56;;;;;;;5.60;2.25;;;;;;;12.03;52.97;102229.31;4974220;28;96800;-65
2022/10/20 02:45:22;;;;;;;3.55;1.88;;;;;;;11.96;53.36;102222.38;4978143;28;98359;-66
2022/10/20 02:47:50;;;;;;;4.53;1.80;;;;;;;11.93;53.36;102225.09;4970658;28;99180;-65
2022/10/20 02:50:17;;;;;;;6.55;2.55;;;;;;;12.05;53.21;102219.56;4972702;28;96761;-66
2022/10/20 02:52:43;;;;;;;3.42;1.80;;;;;;;11.86;53.33;102215.50;4970847;28;97949;-66
2022/10/20 02:55:09;;;;;;;6.35;1.85;;;;;;;12.03;53.06;102218.72;4972552;28;99007;-67
2022/10/20 02:57:36;;;;;;;3.30;2.05;;;;;;;11.85;53.42;102227.88;4967233;28;98858;-67
2022/10/20 03:00:04;;;;;;;4.05;1.70;;;;;;;11.88;53.49;102225.16;4971452;28;96661;-67
2022/10/20 03:02:30;;;;;;;3.40;2.13;;;;;;;11.87;53.46;102226.09;4968588;28;97755;-66
2022/10/20 03:04:58;;;;;;;6.63;1.85;;;;;;;11.98;53.51;102212.63;4970808;28;99561;-67
2022/10/20 03:07:24;;;;;;;5.72;1.80;;;;;;;11.82;53.58;102211.16;4971263;28;98816;-66
2022/10/20 03:09:51;;;;;;;5.15;2.65;;;;;;;11.96;53.55;102214.44;4972522;28;96637;-65
2022/10/20 03:12:17;;;;;;;4.28;2.08;;;;;;;11.83;53.81;102208.47;4967991;28;97249;-65
2022/10/20 03:14:44;;;;;;;5.00;2.30;;;;;;;11.89;53.34;102205.72;4973092;28;99236;-65
2022/10/20 03:17:10;;;;;;;3.38;1.90;;;;;;;11.87;53.33;102198.72;4970418;28;98905;-65
2022/10/20 03:19:37;;;;;;;5.80;2.30;;;;;;;11.59;54.05;102209.75;4963771;28;98562;-66
2022/10/20 03:22:04;;;;;;;12.90;2.55;;;;;;;11.76;53.95;102206.84;4971174;28;99800;-65
2022/10/20 03:24:31;;;;;;;6.97;1.70;;;;;;;11.83;53.75;102195.25;4967971;28;98936;-65
2022/10/20 03:26:57;;;;;;;5.75;2.17;;;;;;;11.88;53.60;102201.31;4972862;28;99028;-65
2022/10/20 03:29:23;;;;;;;4.90;2.90;;;;;;;11.68;54.07;102192.84;4966474;28;98202;-65
2022/10/20 03:31:50;;;;;;;5.47;2.80;;;;;;;11.67;53.99;102195.50;4968831;28;99079;-66
2022/10/20 03:34:16;;;;;;;7.45;2.22;;;;;;;11.63;54.35;102194.66;4969828;28;99015;-66
2022/10/20 03:36:42;;;;;;;3.88;2.20;;;;;;;11.95;53.56;102196.78;4970209;28;98891;-66
2022/10/20 03:39:10;;;;;;;3.10;1.98;;;;;;;11.86;53.63;102189.03;4968675;28;97580;-66
2022/10/20 03:41:36;;;;;;;4.47;2.00;;;;;;;11.88;53.44;102185.44;4970424;28;96842;-65
2022/10/20 03:44:03;;;;;;;4.75;2.40;;;;;;;11.88;53.74;102192.53;4968147;28;99141;-66
2022/10/20 03:46:29;;;;;;;5.90;2.10;;;;;;;11.62;54.23;102186.78;4965472;28;98913;-66
2022/10/20 03:48:57;;;;;;;5.13;2.20;;;;;;;11.68;54.22;102184.91;4968186;28;97866;-66
2022/10/20 03:51:23;;;;;;;6.90;2.08;;;;;;;11.58;53.89;102197.41;4971267;28;98722;-66
2022/10/20 03:53:50;;;;;;;3.38;1.83;;;;;;;11.62;54.20;102198.22;4970299;28;98908;-66
2022/10/20 03:56:20;;;;;;;3.13;2.10;;;;;;;11.61;54.46;102192.97;4963820;28;100632;-66
2022/10/20 03:58:47;;;;;;;5.68;2.05;;;;;;;11.46;54.84;102187.03;4971454;28;97362;-67
2022/10/20 04:01:15;;;;;;;6.22;2.63;;;;;;;11.29;55.50;102183.75;4971922;28;97556;-65
2022/10/20 04:03:43;;;;;;;7.68;2.63;;;;;;;11.48;54.82;102182.59;4970354;28;98993;-67
2022/10/20 04:06:10;;;;;;;5.18;2.13;;;;;;;11.38;55.38;102180.97;4967896;28;99063;-66
2022/10/20 04:08:36;;;;;;;5.05;2.40;;;;;;;11.43;54.54;102176.47;4967604;28;98798;-66
2022/10/20 04:11:02;;;;;;;4.60;2.70;;;;;;;11.26;55.23;102175.88;4969818;28;97066;-66
2022/10/20 04:13:30;;;;;;;6.43;2.40;;;;;;;11.49;54.69;102165.78;4967789;28;99076;-65
2022/10/20 04:15:57;;;;;;;5.40;2.75;;;;;;;11.50;54.75;102167.53;4963493;28;98581;-65
2022/10/20 04:18:23;;;;;;;7.95;2.47;;;;;;;11.45;54.88;102173.81;4965819;28;97152;-65
2022/10/20 04:20:50;;;;;;;7.00;2.97;;;;;;;11.48;54.71;102166.72;4969361;28;97014;-66
2022/10/20 04:23:16;;;;;;;5.30;2.83;;;;;;;11.64;54.10;102164.66;4969410;28;99016;-65
2022/10/20 04:25:47;;;;;;;6.80;2.63;;;;;;;11.62;54.33;102160.31;4970130;28;99170;-66
2022/10/20 04:28:14;;;;;;;7.40;2.78;;;;;;;11.76;53.70;102168.88;4968693;28;96786;-66
2022/10/20 04:30:42;;;;;;;4.75;2.78;;;;;;;11.46;54.39;102154.38;4969563;28;97009;-67
2022/10/20 04:33:09;;;;;;;5.72;2.60;;;;;;;11.55;54.38;102155.09;4969908;28;98856;-66
2022/10/20 04:35:35;;;;;;;7.50;3.03;;;;;;;11.50;54.46;102142.84;4970361;28;98942;-66
2022/10/20 04:38:02;;;;;;;8.00;2.88;;;;;;;11.40;54.66;102151.84;4967610;28;97742;-66
2022/10/20 04:40:28;;;;;;;5.57;3.00;;;;;;;11.50;54.42;102142.84;4970935;28;96839;-66
2022/10/20 04:42:54;;;;;;;6.57;3.20;;;;;;;11.50;54.43;102145.47;4975129;28;98965;-68
2022/10/20 04:45:21;;;;;;;8.52;3.17;;;;;;;11.59;53.97;102140.91;4972539;28;99594;-65
2022/10/20 04:47:49;;;;;;;5.63;2.97;;;;;;;11.43;54.53;102143.84;4975435;28;96867;-66
2022/10/20 04:50:15;;;;;;;7.32;3.10;;;;;;;11.43;54.53;102135.91;4975630;28;96815;-66
2022/10/20 04:52:42;;;;;;;6.28;3.22;;;;;;;11.49;54.29;102126.06;4971588;28;98975;-66
2022/10/20 04:55:09;;;;;;;4.57;2.80;;;;;;;11.44;54.26;102122.66;4966040;28;101685;-65
2022/10/20 04:57:35;;;;;;;11.48;5.05;;;;;;;11.37;54.42;102131.59;4964887;28;97629;-65
2022/10/20 05:00:02;;;;;;;6.90;3.08;;;;;;;11.36;54.42;102135.13;4974699;28;96955;-65
2022/10/20 05:02:29;;;;;;;7.30;3.10;;;;;;;11.22;54.79;102129.22;4970057;28;99305;-65
2022/10/20 05:04:57;;;;;;;6.38;3.05;;;;;;;11.41;54.51;102130.66;4969242;28;99136;-66
2022/10/20 05:07:23;;;;;;;10.23;3.25;;;;;;;11.61;54.11;102122.38;4979703;28;97841;-66
2022/10/20 05:09:50;;;;;;;8.20;3.38;;;;;;;11.48;53.91;102116.41;4974573;28;96901;-65
2022/10/20 05:12:16;;;;;;;11.10;3.63;;;;;;;11.48;53.89;102120.84;4969458;28;99032;-65
2022/10/20 05:14:42;;;;;;;7.65;3.55;;;;;;;11.48;54.14;102120.84;4972002;28;98839;-64
2022/10/20 05:17:09;;;;;;;7.78;3.50;;;;;;;11.31;54.76;102112.28;4974108;28;97200;-65
2022/10/20 05:19:37;;;;;;;6.40;3.33;;;;;;;11.33;54.74;102113.16;4965347;28;98200;-65
2022/10/20 05:22:05;;;;;;;9.20;3.70;;;;;;;11.39;54.43;102110.41;4969057;28;99297;-66
2022/10/20 05:24:31;;;;;;;7.85;3.40;;;;;;;11.25;54.84;102107.97;4967358;28;100422;-66
2022/10/20 05:26:57;;;;;;;8.38;3.25;;;;;;;11.19;55.09;102119.53;4967640;28;98927;-67
2022/10/20 05:29:24;;;;;;;6.10;3.25;;;;;;;11.17;54.97;102108.09;4964002;28;97612;-66
2022/10/20 05:31:50;;;;;;;7.32;3.10;;;;;;;11.37;54.71;102107.75;4960880;28;99163;-67
2022/10/20 05:34:17;;;;;;;6.40;3.38;;;;;;;11.40;54.48;102112.16;4962724;28;98965;-65
2022/10/20 05:36:43;;;;;;;7.57;3.80;;;;;;;11.28;54.72;102110.59;4961381;28;99345;-65
2022/10/20 05:39:11;;;;;;;7.82;3.90;;;;;;;11.37;54.34;102114.81;4966404;28;96897;-67
2022/10/20 05:41:38;;;;;;;8.38;3.63;;;;;;;11.09;54.97;102114.44;4967522;28;98408;-66
2022/10/20 05:44:07;;;;;;;9.45;3.80;;;;;;;11.29;54.20;102120.25;4964888;28;99005;-66
2022/10/20 05:46:36;;;;;;;7.38;3.78;;;;;;;11.25;54.73;102118.56;4967429;28;97503;-66
2022/10/20 05:49:03;;;;;;;10.38;3.92;;;;;;;11.30;54.56;102115.81;4965931;28;97610;-68
2022/10/20 05:51:33;;;;;;;16.02;3.88;;;;;;;11.53;53.96;102119.84;4969466;28;102430;-66
2022/10/20 05:53:59;;;;;;;6.90;4.03;;;;;;;11.22;54.86;102123.03;4968616;28;98954;-66
2022/10/20 05:56:29;;;;;;;11.23;4.20;;;;;;;11.42;54.02;102119.13;4967148;28;97000;-67
2022/10/20 05:58:56;;;;;;;12.75;3.90;;;;;;;11.32;54.46;102128.16;4967672;28;96872;-67
2022/10/20 06:01:24;;;;;;;7.65;3.97;;;;;;;11.36;54.38;102123.66;4972312;28;98394;-69
2022/10/20 06:03:52;;;;;;;8.18;3.60;;;;;;;11.30;54.08;102127.28;4961776;28;98970;-69
2022/10/20 06:06:20;;;;;;;9.65;4.47;;;;;;;11.53;53.74;102122.50;4963213;28;97736;-66
2022/10/20 06:08:50;;;;;;;9.02;4.50;;;;;;;11.30;54.61;102119.34;4962639;28;97648;-66
2022/10/20 06:11:17;;;;;;;8.95;4.43;;;;;;;11.17;55.14;102136.31;4960727;28;99325;-66
2022/10/20 06:13:45;;;;;;;11.48;5.30;;;;;;;11.32;54.39;102136.09;4964672;28;98891;-69
2022/10/20 06:16:14;;;;;;;18.40;4.68;;;;;;;11.56;54.06;102133.00;4957442;28;101537;-66
2022/10/20 06:18:41;;;;;;;12.55;3.88;;;;;;;11.44;54.27;102132.34;4960745;28;97279;-67
2022/10/20 06:21:10;;;;;;;9.32;4.25;;;;;;;11.42;54.18;102132.38;4968038;28;99017;-66
2022/10/20 06:23:37;;;;;;;17.67;5.10;;;;;;;11.32;54.47;102130.78;4960144;28;100604;-67
2022/10/20 06:26:05;;;;;;;10.63;4.38;;;;;;;11.19;54.66;102137.19;4969619;28;97385;-66
2022/10/20 06:28:32;;;;;;;12.45;4.50;;;;;;;11.05;55.06;102131.22;4964812;28;97735;-66
2022/10/20 06:31:01;;;;;;;10.50;5.13;;;;;;;11.00;55.43;102123.38;4962616;28;98952;-65
2022/10/20 06:33:30;;;;;;;9.70;4.07;;;;;;;11.25;54.95;102129.16;4963461;28;98811;-65
2022/10/20 06:35:59;;;;;;;9.13;4.38;;;;;;;11.53;54.47;102129.56;4961875;28;96975;-66
2022/10/20 06:38:25;;;;;;;12.05;5.22;;;;;;;11.56;54.26;102125.06;4970054;28;97054;-66
2022/10/20 06:40:52;;;;;;;12.52;4.68;;;;;;;11.73;53.73;102123.91;4960802;28;97975;-66
2022/10/20 06:43:18;;;;;;;14.95;4.78;;;;;;;11.73;53.85;102130.09;4961827;28;100601;-67
2022/10/20 06:45:54;;;;;;;10.32;4.65;;;;;;;11.73;53.73;102119.50;4963250;28;96946;-67
2022/10/20 06:48:22;;;;;;;10.07;4.65;;;;;;;11.70;53.81;102116.88;4963483;28;98090;-66
2022/10/20 06:50:48;;;;;;;7.25;4.38;;;;;;;11.53;54.30;102111.91;4969627;28;99209;-66
2022/10/20 06:53:15;;;;;;;11.73;4.85;;;;;;;11.90;53.73;102114.78;4964896;28;99007;-66
2022/10/20 06:55:41;;;;;;;9.90;5.22;;;;;;;11.80;53.81;102121.16;4966384;28;97581;-67
2022/10/20 06:58:07;;;;;;;14.15;5.15;;;;;;;11.95;53.71;102112.03;4963309;28;96908;-67
2022/10/20 07:00:34;;;;;;;12.63;5.85;;;;;;;12.05;53.28;102110.94;4971527;28;99529;-67
2022/10/20 07:03:01;;;;;;;12.23;5.32;;;;;;;12.08;53.29;102113.53;4966045;28;97660;-66
2022/10/20 07:05:29;;;;;;;15.93;5.80;;;;;;;12.21;53.16;102112.38;4963486;28;96813;-69
2022/10/20 07:07:55;;;;;;;14.18;6.03;;;;;;;11.93;53.51;102111.19;4967434;28;96922;-68
2022/10/20 07:10:22;;;;;;;14.10;5.60;;;;;;;12.16;53.11;102110.72;4971298;28;101555;-70
2022/10/20 07:12:49;;;;;;;12.88;5.22;;;;;;;12.24;53.17;102114.09;4971448;28;98877;-67
2022/10/20 07:15:15;;;;;;;11.75;5.78;;;;;;;12.31;52.99;102106.00;4967929;28;97735;-66
2022/10/20 07:17:42;;;;;;;10.20;5.55;;;;;;;12.29;53.11;102113.09;4971846;28;96835;-66
2022/10/20 07:20:09;;;;;;;10.85;5.32;;;;;;;12.63;52.14;102107.94;4967391;28;99262;-66
2022/10/20 07:22:40;;;;;;;13.00;4.97;;;;;;;12.66;52.11;102104.34;4957094;28;99118;-67
2022/10/20 07:25:08;;;;;;;9.82;5.78;;;;;;;12.68;51.90;102099.88;4966204;28;97287;-67
2022/10/20 07:27:34;;;;;;;9.00;5.00;;;;;;;12.61;52.20;102092.94;4967363;28;97104;-67
2022/10/20 07:30:00;;;;;;;8.20;4.70;;;;;;;12.99;51.63;102098.25;4965073;28;101230;-67
2022/10/20 07:32:27;;;;;;;9.00;4.68;;;;;;;12.88;51.75;102102.94;4965123;28;99175;-66
2022/10/20 07:34:54;;;;;;;10.25;5.15;;;;;;;12.86;51.71;102093.28;4971426;28;97634;-66
2022/10/20 07:37:20;;;;;;;10.32;5.47;;;;;;;12.78;51.36;102102.28;4972419;28;97310;-67
2022/10/20 07:39:48;;;;;;;10.02;4.88;;;;;;;12.91;51.30;102091.38;4964404;28;100697;-68
2022/10/20 07:42:14;;;;;;;12.52;4.90;;;;;;;12.97;51.21;102092.13;4967109;28;101026;-68
2022/10/20 07:44:40;;;;;;;18.30;5.43;;;;;;;12.90;51.50;102092.28;4971345;28;98097;-67
2022/10/20 07:47:07;;;;;;;11.10;5.25;;;;;;;12.99;51.05;102089.44;4963778;28;97351;-68
2022/10/20 07:49:33;;;;;;;13.32;5.05;;;;;;;13.09;50.96;102096.25;4961154;28;98988;-67
2022/10/20 07:52:00;;;;;;;14.02;5.20;;;;;;;13.14;50.88;102089.94;4968554;28;98745;-68
2022/10/20 07:54:26;;;;;;;12.30;4.57;;;;;;;13.15;50.93;102091.69;4971761;28;96834;-67
2022/10/20 07:56:54;;;;;;;12.25;5.03;;;;;;;13.34;50.57;102085.91;4965760;28;96925;-67
2022/10/20 07:59:20;;;;;;;9.80;5.60;;;;;;;13.33;50.53;102089.47;4966954;28;98927;-67
2022/10/20 08:01:47;;;;;;;10.00;5.20;;;;;;;13.24;50.92;102089.72;4970309;28;97830;-67
2022/10/20 08:04:14;;;;;;;11.07;5.40;;;;;;;13.55;50.35;102091.53;4955481;28;100746;-67
2022/10/20 08:06:40;;;;;;;17.95;5.50;;;;;;;13.51;49.93;102089.88;4968911;28;101332;-69
2022/10/20 08:09:07;;;;;;;9.77;4.97;;;;;;;13.45;50.72;102084.75;4966986;28;99109;-67
2022/10/20 08:11:34;;;;;;;10.57;4.78;;;;;;;13.78;49.94;102072.34;4962421;28;98801;-67
2022/10/20 08:14:02;;;;;;;10.45;4.90;;;;;;;13.74;49.87;102068.00;4968939;28;97120;-67
2022/10/20 08:16:28;;;;;;;8.27;4.90;;;;;;;13.92;49.86;102070.13;4969596;28;97128;-66
2022/10/20 08:18:55;;;;;;;12.15;6.07;;;;;;;14.27;49.15;102076.22;4963187;28;99097;-66
2022/10/20 08:21:23;;;;;;;13.10;5.20;;;;;;;14.20;49.24;102070.22;4961834;28;102521;-67
2022/10/20 08:23:50;;;;;;;11.73;4.95;;;;;;;14.02;49.54;102068.09;4966012;28;96906;-67
2022/10/20 08:26:19;;;;;;;11.65;4.38;;;;;;;14.47;48.78;102057.03;4960476;28;96950;-66
2022/10/20 08:28:46;;;;;;;9.52;4.95;;;;;;;14.68;48.35;102051.94;4961634;28;98936;-67
2022/10/20 08:31:14;;;;;;;7.65;4.50;;;;;;;14.95;47.51;102054.63;4966481;28;99621;-67
2022/10/20 08:33:40;;;;;;;11.10;4.45;;;;;;;14.60;47.65;102053.94;4970789;28;96909;-67
2022/10/20 08:36:10;;;;;;;9.25;4.20;;;;;;;14.75;47.69;102058.81;4964321;28;98530;-69
2022/10/20 08:38:38;;;;;;;7.80;3.55;;;;;;;14.73;47.52;102051.78;4964207;28;100942;-67
2022/10/20 08:41:07;;;;;;;15.48;4.25;;;;;;;14.88;47.52;102048.63;4964058;28;100946;-66
2022/10/20 08:43:40;;;;;;;10.65;3.47;;;;;;;14.77;47.05;102056.06;4967259;28;97503;-66
2022/10/20 08:46:07;;;;;;;6.75;3.78;;;;;;;14.82;47.04;102047.97;4970524;28;97077;-67
2022/10/20 08:48:35;;;;;;;6.10;3.55;;;;;;;14.70;47.23;102051.88;4969760;28;100827;-68
2022/10/20 08:51:01;;;;;;;10.60;4.07;;;;;;;14.92;47.12;102044.94;4965179;28;100225;-67
2022/10/20 08:53:34;;;;;;;9.93;3.80;;;;;;;14.85;47.32;102042.50;4962686;28;97961;-66
2022/10/20 08:56:00;;;;;;;6.22;3.25;;;;;;;14.90;46.99;102041.44;4965150;28;98893;-68
2022/10/20 08:58:27;;;;;;;8.98;4.82;;;;;;;15.08;46.49;102034.66;4966839;28;100098;-68
2022/10/20 09:00:56;;;;;;;6.78;3.60;;;;;;;15.32;45.90;102039.13;4970663;28;99212;-67
2022/10/20 09:03:28;;;;;;;8.05;3.65;;;;;;;15.42;46.12;102040.56;4964709;28;97447;-67
2022/10/20 09:06:02;;;;;;;8.00;3.53;;;;;;;15.46;46.09;102026.22;4964822;28;96977;-66
2022/10/20 09:08:30;;;;;;;6.30;3.22;;;;;;;15.34;46.01;102037.28;4967480;28;99242;-66
2022/10/20 09:10:58;;;;;;;9.60;3.92;;;;;;;15.32;46.45;102032.94;4959966;28;98984;-68
2022/10/20 09:13:26;;;;;;;8.95;3.42;;;;;;;15.46;46.42;102025.34;4969163;28;96803;-67
2022/10/20 09:15:56;;;;;;;9.32;3.67;;;;;;;15.79;45.66;102032.16;4965851;28;97595;-67
2022/10/20 09:18:23;;;;;;;5.45;3.15;;;;;;;15.50;46.19;102029.63;4963936;28;99634;-67
2022/10/20 09:20:53;;;;;;;7.82;3.80;;;;;;;15.67;46.06;102019.28;4962226;28;99053;-68
2022/10/20 09:23:24;;;;;;;9.13;3.90;;;;;;;16.01;45.88;102026.88;4971672;28;97063;-67
2022/10/20 09:25:52;;;;;;;12.48;4.05;;;;;;;16.20;44.96;102025.25;4968825;28;97651;-65
2022/10/20 09:28:22;;;;;;;7.13;4.18;;;;;;;16.09;45.04;102005.25;4969986;28;100249;-66
2022/10/20 09:30:49;;;;;;;11.35;3.85;;;;;;;16.29;44.63;102000.88;4963764;28;99890;-68
2022/10/20 09:33:27;;;;;;;8.45;3.80;;;;;;;16.39;44.40;101997.84;4964264;28;98861;-67
2022/10/20 09:35:54;;;;;;;9.15;4.32;;;;;;;16.21;44.77;102010.97;4963351;28;97761;-67
2022/10/20 09:38:28;;;;;;;9.20;4.13;;;;;;;16.31;44.62;102001.69;4964678;28;99483;-67
2022/10/20 09:41:02;;;;;;;8.25;3.58;;;;;;;16.43;44.60;101994.13;4963391;28;99218;-66
2022/10/20 09:43:29;;;;;;;6.07;3.53;;;;;;;16.34;44.75;101995.38;4964188;28;96833;-67
2022/10/20 09:45:58;;;;;;;8.75;4.20;;;;;;;16.52;44.57;101983.09;4966338;28;98545;-66
2022/10/20 09:48:28;;;;;;;9.75;3.63;;;;;;;16.78;44.09;101982.06;4971111;28;99012;-66
2022/10/20 09:50:56;;;;;;;7.57;3.72;;;;;;;16.67;43.85;101982.50;4966868;28;97525;-68
2022/10/20 09:53:27;;;;;;;11.07;4.13;;;;;;;16.71;44.03;101973.44;4971383;28;98692;-68
2022/10/20 09:55:54;;;;;;;6.30;3.40;;;;;;;16.72;44.27;101965.38;4969520;28;98499;-67
2022/10/20 09:58:24;;;;;;;9.25;3.65;;;;;;;16.90;44.14;101968.19;4963824;28;97714;-67
2022/10/20 10:00:59;;;;;;;5.45;3.60;;;;;;;16.83;43.45;101961.38;4962951;28;99395;-67
2022/10/20 10:03:26;;;;;;;5.90;3.47;;;;;;;16.95;43.91;101967.06;4964058;28;97562;-66
2022/10/20 10:05:55;;;;;;;12.43;4.20;;;;;;;16.81;43.86;101949.88;4967469;28;96896;-68
2022/10/20 10:08:23;;;;;;;13.63;3.67;;;;;;;17.07;43.92;101941.63;4967455;28;99159;-67
2022/10/20 10:11:03;;;;;;;6.75;3.20;;;;;;;17.24;43.10;101948.91;4966944;28;98630;-67
2022/10/20 10:13:31;;;;;;;8.27;3.65;;;;;;;17.11;42.54;101938.75;4964087;28;97685;-66
2022/10/20 10:16:03;;;;;;;6.30;3.22;;;;;;;17.41;42.35;101941.00;4965081;28;96889;-67
2022/10/20 10:18:30;;;;;;;11.65;3.70;;;;;;;17.13;42.78;101934.19;4963745;28;99416;-66
2022/10/20 10:20:59;;;;;;;7.43;3.00;;;;;;;17.02;43.29;101931.16;4961332;28;99331;-67
2022/10/20 10:23:27;;;;;;;5.20;2.47;;;;;;;16.86;43.44;101919.41;4967643;28;96762;-67
2022/10/20 10:25:54;;;;;;;5.63;2.67;;;;;;;16.89;43.24;101919.25;4968585;28;97869;-67
2022/10/20 10:28:32;;;;;;;6.45;3.08;;;;;;;17.33;42.57;101905.72;4962737;28;99406;-68
2022/10/20 10:31:18;;;;;;;5.93;2.40;;;;;;;17.33;41.55;101908.41;4961681;28;99536;-67
2022/10/20 10:33:44;;;;;;;5.13;2.60;;;;;;;17.49;41.68;101904.13;4969460;28;97523;-68
2022/10/20 10:36:17;;;;;;;8.02;2.50;;;;;;;17.35;41.50;101894.06;4972145;28;96789;-67
2022/10/20 10:38:44;;;;;;;4.45;2.17;;;;;;;17.60;41.05;101895.59;4970392;28;97951;-67
2022/10/20 10:41:20;;;;;;;4.97;2.35;;;;;;;17.43;40.88;101894.59;4962588;28;99060;-67
2022/10/20 10:43:57;;;;;;;5.85;2.40;;;;;;;17.47;40.86;101888.16;4968023;28;96946;-67
2022/10/20 10:46:27;;;;;;;4.78;2.35;;;;;;;17.36;41.04;101882.44;4968064;28;97367;-68
2022/10/20 10:49:11;;;;;;;5.60;2.28;;;;;;;17.25;41.11;101879.41;4967774;28;100762;-66
2022/10/20 10:51:51;;;;;;;5.28;2.60;;;;;;;17.26;41.59;101870.44;4961791;28;98840;-67
2022/10/20 10:54:33;;;;;;;7.32;2.47;;;;;;;17.36;41.28;101876.22;4967378;28;96810;-68
2022/10/20 10:57:03;;;;;;;7.30;2.28;;;;;;;17.27;41.18;101860.59;4961997;28;97612;-68
2022/10/20 10:59:35;;;;;;;2.72;2.17;;;;;;;17.29;40.92;101858.75;4962153;28;99009;-66
2022/10/20 11:02:27;;;;;;;3.65;2.42;;;;;;;17.29;41.00;101851.59;4964685;28;98943;-66
2022/10/20 11:05:23;;;;;;;8.95;2.30;;;;;;;17.53;40.61;101853.13;4961855;28;98022;-66
2022/10/20 11:07:59;;;;;;;4.90;3.28;;;;;;;17.35;41.17;101848.63;4926697;28;97083;-67
2022/10/20 11:10:36;;;;;;;8.63;3.05;;;;;;;17.38;41.10;101836.97;4960904;28;99228;-67
2022/10/20 11:13:16;;;;;;;5.35;2.78;;;;;;;17.73;40.66;101838.84;4961423;28;99260;-65
2022/10/20 11:15:56;;;;;;;5.03;2.40;;;;;;;17.66;40.63;101829.38;4963410;28;97500;-67
2022/10/20 11:18:37;;;;;;;4.78;2.53;;;;;;;17.59;40.59;101819.06;4965085;28;98035;-66
2022/10/20 11:21:17;;;;;;;6.00;2.47;;;;;;;17.82;40.45;101811.69;4961230;28;98110;-67
2022/10/20 11:23:57;;;;;;;7.93;2.60;;;;;;;17.72;40.80;101809.53;4960422;28;99535;-67
2022/10/20 11:26:28;;;;;;;4.55;2.25;;;;;;;17.67;40.54;101814.22;4946289;28;97017;-67
2022/10/20 11:28:57;;;;;;;4.60;2.30;;;;;;;17.41;41.07;101804.72;4963343;28;98022;-68
2022/10/20 11:31:30;;;;;;;6.00;2.55;;;;;;;17.54;41.12;101798.75;4961855;28;99066;-68